Time;durP1;ratioP1;P1;durP2;ratioP2;P2;SDS_P1;SDS_P2;PMS_P1;PMS_P2;Temp;Humidity;BMP_temperature;BMP_pressure;BME280_temperature;BME280_humidity;BME280_pressure;Samples;Min_cycle;Max_cycle;Signal;HPM_P1;HPM_P2
2021/08/08 00:01:32;;;;;;;7.70;5.37;;;;;;;18.79;79.15;98027.52;124851;1093;64271;-83
2021/08/08 00:04:00;;;;;;;6.70;5.10;;;;;;;18.76;79.53;98033.27;124877;1093;64290;-83
2021/08/08 00:06:27;;;;;;;6.20;5.27;;;;;;;18.76;79.79;98039.51;124828;1093;64863;-83
2021/08/08 00:08:54;;;;;;;6.83;5.77;;;;;;;18.76;79.58;98044.91;124901;1093;64297;-83
2021/08/08 00:11:22;;;;;;;7.70;5.10;;;;;;;18.77;79.77;98034.95;124891;1093;64300;-83
2021/08/08 00:13:49;;;;;;;5.87;5.27;;;;;;;18.79;79.43;98039.15;124919;1093;64268;-82
2021/08/08 00:16:17;;;;;;;6.53;4.90;;;;;;;18.80;79.74;98032.75;124845;1093;64290;-82
2021/08/08 00:18:44;;;;;;;7.63;5.23;;;;;;;18.83;79.52;98040.48;124851;1093;64440;-83
2021/08/08 00:21:11;;;;;;;5.50;4.60;;;;;;;18.84;79.30;98042.16;124874;1093;64287;-82
2021/08/08 00:23:38;;;;;;;6.80;4.45;;;;;;;18.86;79.46;98042.82;124887;1093;64287;-82
2021/08/08 00:26:05;;;;;;;5.47;4.33;;;;;;;18.89;78.88;98043.49;124860;1093;64255;-82
2021/08/08 00:28:32;;;;;;;4.93;4.13;;;;;;;18.93;79.19;98031.30;124895;1093;64265;-82
2021/08/08 00:31:00;;;;;;;5.47;3.87;;;;;;;18.97;78.80;98027.23;124906;1093;64287;-82
2021/08/08 00:33:27;;;;;;;3.90;3.60;;;;;;;19.04;78.21;98020.10;124883;1093;64287;-82
2021/08/08 00:35:54;;;;;;;4.77;3.47;;;;;;;19.11;78.26;98025.60;124846;1093;64291;-82
2021/08/08 00:38:21;;;;;;;4.70;3.50;;;;;;;19.15;77.72;98024.23;124903;1093;64361;-82
2021/08/08 00:40:48;;;;;;;4.20;3.60;;;;;;;19.18;77.46;98021.16;124944;1092;64155;-82
2021/08/08 00:43:15;;;;;;;4.00;3.60;;;;;;;19.20;77.13;98019.97;124892;1093;64255;-82
2021/08/08 00:45:42;;;;;;;4.27;3.30;;;;;;;19.21;76.98;98028.91;124879;1093;64270;-82
2021/08/08 00:48:10;;;;;;;5.27;4.03;;;;;;;19.24;76.98;98023.96;124870;1093;64287;-82
2021/08/08 00:50:37;;;;;;;3.57;3.10;;;;;;;19.28;76.75;98028.00;124907;1093;64424;-82
2021/08/08 00:53:06;;;;;;;4.17;3.77;;;;;;;19.32;76.70;98039.27;124836;1093;64274;-82
2021/08/08 00:55:34;;;;;;;4.20;3.78;;;;;;;19.34;76.29;98029.13;124948;1093;64276;-82
2021/08/08 00:58:01;;;;;;;6.97;6.27;;;;;;;19.37;76.23;98031.45;124840;1093;64320;-82
2021/08/08 01:00:28;;;;;;;4.80;4.30;;;;;;;19.38;76.29;98030.45;124912;1093;64276;-82
2021/08/08 01:03:04;;;;;;;5.17;3.50;;;;;;;19.35;76.06;98028.09;124888;1093;64244;-82
2021/08/08 01:05:39;;;;;;;4.77;4.30;;;;;;;19.32;76.41;98024.92;124917;1093;64293;-82
2021/08/08 01:08:11;;;;;;;3.90;3.60;;;;;;;19.29;76.16;98023.42;124848;1093;64260;-82
2021/08/08 01:10:42;;;;;;;5.65;3.80;;;;;;;19.28;76.23;98025.30;124963;1092;64361;-82
2021/08/08 01:13:11;;;;;;;4.73;3.60;;;;;;;19.29;76.10;98028.83;124843;1093;64312;-82
2021/08/08 01:15:41;;;;;;;4.60;3.97;;;;;;;19.27;76.42;98029.03;124903;1093;64331;-82
2021/08/08 01:18:12;;;;;;;6.20;5.60;;;;;;;19.27;76.25;98026.33;124906;1093;64176;-82
2021/08/08 01:20:40;;;;;;;5.53;4.33;;;;;;;19.29;76.35;98020.73;124870;1093;64291;-82
2021/08/08 01:23:09;;;;;;;7.83;6.27;;;;;;;19.29;75.89;98018.86;124924;1093;64271;-82
2021/08/08 01:25:37;;;;;;;7.15;6.43;;;;;;;19.32;75.94;98030.33;124924;1093;64264;-82
2021/08/08 01:28:05;;;;;;;8.90;7.37;;;;;;;19.33;76.18;98010.41;124819;1092;64271;-82
2021/08/08 01:30:33;;;;;;;8.70;7.10;;;;;;;19.30;75.96;98017.86;124882;1092;64268;-82
2021/08/08 01:33:06;;;;;;;8.35;5.45;;;;;;;19.32;75.93;98023.05;124821;1093;64304;-82
2021/08/08 01:35:33;;;;;;;5.10;4.20;;;;;;;19.34;75.87;98026.42;124916;1093;64281;-83
2021/08/08 01:38:00;;;;;;;4.83;3.93;;;;;;;19.37;75.82;98023.35;124912;1093;64399;-82
2021/08/08 01:40:49;;;;;;;3.40;3.10;;;;;;;19.44;75.61;98029.72;124917;1093;64351;-82
2021/08/08 01:43:24;;;;;;;5.13;3.63;;;;;;;19.51;75.60;98030.67;124945;1092;64284;-82
2021/08/08 01:45:54;;;;;;;5.53;3.43;;;;;;;19.55;75.69;98024.89;124903;1092;64299;-82
2021/08/08 01:48:23;;;;;;;4.50;4.10;;;;;;;19.57;75.34;98030.96;125015;1093;64276;-82
2021/08/08 01:50:50;;;;;;;3.37;2.90;;;;;;;19.56;75.16;98034.67;124955;1093;64316;-82
2021/08/08 01:53:17;;;;;;;4.37;3.60;;;;;;;19.53;75.26;98036.70;124916;1093;64353;-82
2021/08/08 01:55:45;;;;;;;6.17;3.80;;;;;;;19.51;75.46;98048.75;124825;1093;64322;-82
2021/08/08 01:58:12;;;;;;;3.00;2.80;;;;;;;19.52;75.39;98047.72;124914;1093;64191;-82
2021/08/08 02:00:40;;;;;;;4.37;2.77;;;;;;;19.54;75.22;98042.98;124865;1093;64213;-82
2021/08/08 02:03:09;;;;;;;4.23;3.40;;;;;;;19.58;75.25;98041.58;124881;1093;64265;-82
2021/08/08 02:05:36;;;;;;;4.90;3.63;;;;;;;19.62;75.35;98040.20;124882;1093;64250;-82
2021/08/08 02:08:04;;;;;;;4.20;3.10;;;;;;;19.66;75.41;98038.82;124872;1093;64330;-82
2021/08/08 02:10:31;;;;;;;6.47;3.80;;;;;;;19.68;75.18;98038.65;124858;1093;64412;-82
2021/08/08 02:12:58;;;;;;;3.73;3.17;;;;;;;19.70;75.38;98044.72;124884;1093;64331;-82
2021/08/08 02:15:25;;;;;;;4.97;3.97;;;;;;;19.72;75.34;98054.33;124872;1093;64300;-82
2021/08/08 02:17:52;;;;;;;3.83;3.43;;;;;;;19.76;75.06;98054.78;124895;1093;64285;-83
2021/08/08 02:20:20;;;;;;;4.57;3.47;;;;;;;19.79;75.16;98065.23;124858;1093;64313;-82
2021/08/08 02:22:47;;;;;;;3.67;3.27;;;;;;;19.82;75.17;98067.55;124857;1093;64415;-82
2021/08/08 02:25:15;;;;;;;5.00;3.27;;;;;;;19.87;75.25;98077.83;124887;1093;64159;-82
2021/08/08 02:27:42;;;;;;;3.73;3.30;;;;;;;19.89;75.30;98070.38;124804;1093;64319;-82
2021/08/08 02:30:10;;;;;;;4.05;2.90;;;;;;;19.95;75.59;98080.44;124955;1091;64287;-82
2021/08/08 02:32:38;;;;;;;3.60;2.60;;;;;;;20.06;75.68;98073.73;124992;1093;64294;-82
2021/08/08 02:35:06;;;;;;;4.23;2.70;;;;;;;20.14;75.54;98074.51;124932;1092;64518;-82
2021/08/08 02:37:33;;;;;;;6.15;2.95;;;;;;;20.25;75.69;98084.02;125156;1093;64412;-82
2021/08/08 02:40:00;;;;;;;3.80;2.70;;;;;;;20.35;75.24;98084.58;125206;1093;64290;-82
2021/08/08 02:42:28;;;;;;;4.70;2.80;;;;;;;20.45;75.46;98097.80;125263;1092;64248;-83
2021/08/08 02:44:55;;;;;;;3.70;2.60;;;;;;;20.58;75.39;98118.84;125056;1092;64264;-83
2021/08/08 02:47:22;;;;;;;4.37;3.03;;;;;;;20.89;75.39;98115.06;125025;1092;64263;-83
2021/08/08 02:49:49;;;;;;;7.85;3.15;;;;;;;21.10;75.80;98130.52;124837;1092;64360;-83
2021/08/08 02:52:17;;;;;;;5.03;2.83;;;;;;;21.20;76.02;98139.19;124843;1093;64310;-82
2021/08/08 02:54:44;;;;;;;8.27;2.90;;;;;;;21.24;76.01;98149.42;124875;1092;64226;-83
2021/08/08 02:57:11;;;;;;;2.80;2.50;;;;;;;21.26;76.65;98141.95;124860;1093;64287;-82
2021/08/08 02:59:38;;;;;;;4.40;2.40;;;;;;;21.25;77.11;98158.42;124848;1093;64404;-82
2021/08/08 03:02:06;;;;;;;7.40;2.47;;;;;;;21.19;77.33;98151.88;124911;1093;64760;-83
2021/08/08 03:04:34;;;;;;;6.27;2.40;;;;;;;21.15;77.05;98157.89;124856;1093;64292;-82
2021/08/08 03:07:01;;;;;;;5.97;2.43;;;;;;;21.09;77.05;98158.63;124889;1093;64293;-82
2021/08/08 03:09:28;;;;;;;2.97;1.87;;;;;;;21.03;76.86;98152.94;124855;1093;64293;-82
2021/08/08 03:11:56;;;;;;;2.33;1.50;;;;;;;20.99;76.88;98173.33;124818;1093;64409;-82
2021/08/08 03:14:23;;;;;;;3.57;1.50;;;;;;;20.96;76.39;98168.30;124877;1093;64276;-83
2021/08/08 03:16:50;;;;;;;2.40;1.43;;;;;;;20.95;75.85;98176.59;124853;1093;64749;-82
2021/08/08 03:19:17;;;;;;;2.27;1.20;;;;;;;20.94;75.57;98191.18;124877;1093;64309;-82
2021/08/08 03:21:45;;;;;;;3.73;1.20;;;;;;;20.91;74.65;98197.81;124845;1093;64191;-83
2021/08/08 03:24:12;;;;;;;2.23;1.27;;;;;;;20.87;74.53;98204.62;124873;1092;64313;-82
2021/08/08 03:26:40;;;;;;;1.25;1.00;;;;;;;20.81;74.73;98211.63;124895;1093;64290;-83
2021/08/08 03:29:08;;;;;;;1.40;0.80;;;;;;;20.76;74.33;98215.93;124889;1093;64245;-82
2021/08/08 03:31:37;;;;;;;3.37;1.17;;;;;;;20.70;74.73;98228.35;124848;1093;64223;-82
2021/08/08 03:34:04;;;;;;;0.97;0.80;;;;;;;20.65;74.50;98243.48;124897;1093;64287;-82
2021/08/08 03:36:31;;;;;;;2.53;1.10;;;;;;;20.55;74.00;98255.41;124844;1093;64293;-82
2021/08/08 03:38:59;;;;;;;2.47;0.70;;;;;;;20.45;73.93;98268.33;124886;1093;64403;-83
2021/08/08 03:41:26;;;;;;;2.60;0.90;;;;;;;20.33;74.07;98256.28;124895;1093;64370;-83
2021/08/08 03:43:53;;;;;;;2.30;1.07;;;;;;;20.24;73.90;98287.95;124946;1092;64271;-82
2021/08/08 03:46:21;;;;;;;1.50;0.60;;;;;;;20.15;73.73;98280.95;124994;1093;64262;-82
2021/08/08 03:48:48;;;;;;;1.80;0.70;;;;;;;20.06;73.51;98282.84;124991;1092;64300;-82
2021/08/08 03:51:15;;;;;;;0.67;0.67;;;;;;;20.01;73.90;98285.28;124840;1093;64271;-82
2021/08/08 03:53:42;;;;;;;1.33;0.70;;;;;;;19.92;73.54;98287.19;124905;1093;64347;-83
2021/08/08 03:56:09;;;;;;;1.10;0.53;;;;;;;19.85;73.63;98298.89;124897;1093;64363;-83
2021/08/08 03:58:36;;;;;;;2.00;0.67;;;;;;;19.79;73.92;98303.16;124840;1093;64287;-83
2021/08/08 04:01:04;;;;;;;6.70;1.47;;;;;;;19.75;73.97;98312.66;124898;1093;64249;-84
2021/08/08 04:03:31;;;;;;;1.07;0.70;;;;;;;19.70;73.90;98324.00;125440;1093;64494;-84
2021/08/08 04:05:58;;;;;;;1.60;0.70;;;;;;;19.69;73.64;98318.76;125272;1093;64276;-84
2021/08/08 04:08:26;;;;;;;3.03;0.60;;;;;;;19.68;73.41;98327.91;124905;1093;64284;-89
2021/08/08 04:10:53;;;;;;;0.83;0.70;;;;;;;19.68;73.42;98323.33;124842;1092;64288;-86
2021/08/08 04:13:20;;;;;;;2.10;0.97;;;;;;;19.67;73.27;98334.34;124845;1092;64367;-85
2021/08/08 04:15:47;;;;;;;2.60;0.60;;;;;;;19.65;73.63;98353.39;124834;1093;64309;-84
2021/08/08 04:18:14;;;;;;;2.40;0.80;;;;;;;19.59;73.22;98359.52;124876;1091;64187;-84
2021/08/08 04:20:41;;;;;;;0.83;0.50;;;;;;;19.56;72.80;98353.59;124899;1093;64276;-84
2021/08/08 04:23:10;;;;;;;3.07;0.83;;;;;;;19.50;73.28;98361.39;124898;1094;64287;-83
2021/08/08 04:25:40;;;;;;;1.90;0.70;;;;;;;19.48;73.47;98360.74;124880;1093;64366;-83
2021/08/08 04:28:07;;;;;;;;;;;;;;;19.46;73.60;98362.77;124937;1093;64365;-84
2021/08/08 04:30:35;;;;;;;1.90;0.60;;;;;;;19.43;74.14;98370.37;124859;1093;64224;-83
2021/08/08 04:33:03;;;;;;;2.23;0.73;;;;;;;19.35;74.53;98379.34;124869;1093;64271;-83
